sensor_id;sensor_type;location;lat;lon;timestamp;temperature;humidity
3715;DHT22;1873;49.988;8.674;2022-08-02T00:02:19;22.50;99.90
3715;DHT22;1873;49.988;8.674;2022-08-02T00:04:47;22.50;99.90
3715;DHT22;1873;49.988;8.674;2022-08-02T00:07:16;22.50;99.90
3715;DHT22;1873;49.988;8.674;2022-08-02T00:09:44;22.40;99.90
3715;DHT22;1873;49.988;8.674;2022-08-02T00:12:12;22.30;99.90
3715;DHT22;1873;49.988;8.674;2022-08-02T00:14:42;22.40;99.90
3715;DHT22;1873;49.988;8.674;2022-08-02T00:17:10;22.40;99.90
3715;DHT22;1873;49.988;8.674;2022-08-02T00:19:38;22.30;99.90
3715;DHT22;1873;49.988;8.674;2022-08-02T00:22:08;22.40;99.90
3715;DHT22;1873;49.988;8.674;2022-08-02T00:24:37;22.30;99.90
3715;DHT22;1873;49.988;8.674;2022-08-02T00:27:18;22.30;99.90
3715;DHT22;1873;49.988;8.674;2022-08-02T00:29:49;22.30;99.90
3715;DHT22;1873;49.988;8.674;2022-08-02T00:32:19;22.30;99.90
3715;DHT22;1873;49.988;8.674;2022-08-02T00:34:47;22.20;99.90
3715;DHT22;1873;49.988;8.674;2022-08-02T00:37:16;22.10;99.90
3715;DHT22;1873;49.988;8.674;2022-08-02T00:39:44;22.10;99.90
3715;DHT22;1873;49.988;8.674;2022-08-02T00:42:13;22.10;99.90
3715;DHT22;1873;49.988;8.674;2022-08-02T00:44:43;22.10;99.90
3715;DHT22;1873;49.988;8.674;2022-08-02T00:47:13;22.00;99.90
3715;DHT22;1873;49.988;8.674;2022-08-02T00:49:45;22.00;99.90
3715;DHT22;1873;49.988;8.674;2022-08-02T00:52:13;22.00;99.90
3715;DHT22;1873;49.988;8.674;2022-08-02T00:54:42;21.90;99.90
3715;DHT22;1873;49.988;8.674;2022-08-02T00:57:11;22.00;99.90
3715;DHT22;1873;49.988;8.674;2022-08-02T00:59:39;22.00;99.90
3715;DHT22;1873;49.988;8.674;2022-08-02T01:02:08;22.10;99.90
3715;DHT22;1873;49.988;8.674;2022-08-02T01:04:38;22.00;99.90
3715;DHT22;1873;49.988;8.674;2022-08-02T01:07:06;22.00;99.90
3715;DHT22;1873;49.988;8.674;2022-08-02T01:09:40;21.90;99.90
3715;DHT22;1873;49.988;8.674;2022-08-02T01:12:08;21.80;99.90
3715;DHT22;1873;49.988;8.674;2022-08-02T01:14:39;21.80;99.90
3715;DHT22;1873;49.988;8.674;2022-08-02T01:17:13;21.80;99.90
3715;DHT22;1873;49.988;8.674;2022-08-02T01:19:50;21.70;99.90
3715;DHT22;1873;49.988;8.674;2022-08-02T01:22:39;21.80;99.90
3715;DHT22;1873;49.988;8.674;2022-08-02T01:25:41;21.80;99.90
3715;DHT22;1873;49.988;8.674;2022-08-02T01:28:27;21.70;99.90
3715;DHT22;1873;49.988;8.674;2022-08-02T01:31:00;21.70;99.90
3715;DHT22;1873;49.988;8.674;2022-08-02T01:33:37;21.70;99.90
3715;DHT22;1873;49.988;8.674;2022-08-02T01:36:10;21.70;99.90
3715;DHT22;1873;49.988;8.674;2022-08-02T01:38:45;21.60;99.90
3715;DHT22;1873;49.988;8.674;2022-08-02T01:41:17;21.60;99.90
3715;DHT22;1873;49.988;8.674;2022-08-02T01:43:51;21.60;99.90
3715;DHT22;1873;49.988;8.674;2022-08-02T01:46:20;21.50;99.90
3715;DHT22;1873;49.988;8.674;2022-08-02T01:48:52;21.50;99.90
3715;DHT22;1873;49.988;8.674;2022-08-02T01:51:22;21.50;99.90
3715;DHT22;1873;49.988;8.674;2022-08-02T01:54:07;21.50;99.90
3715;DHT22;1873;49.988;8.674;2022-08-02T01:56:37;21.50;99.90
3715;DHT22;1873;49.988;8.674;2022-08-02T01:59:10;21.60;99.90
3715;DHT22;1873;49.988;8.674;2022-08-02T02:01:40;21.50;99.90
3715;DHT22;1873;49.988;8.674;2022-08-02T02:04:11;21.50;99.90
3715;DHT22;1873;49.988;8.674;2022-08-02T02:06:41;21.50;99.90
3715;DHT22;1873;49.988;8.674;2022-08-02T02:09:11;21.50;99.90
3715;DHT22;1873;49.988;8.674;2022-08-02T02:11:41;21.50;99.90
3715;DHT22;1873;49.988;8.674;2022-08-02T02:14:32;21.40;99.90
3715;DHT22;1873;49.988;8.674;2022-08-02T02:17:02;21.40;99.90
3715;DHT22;1873;49.988;8.674;2022-08-02T02:19:35;21.40;99.90
3715;DHT22;1873;49.988;8.674;2022-08-02T02:22:03;21.30;99.90
3715;DHT22;1873;49.988;8.674;2022-08-02T02:24:32;21.30;99.90
3715;DHT22;1873;49.988;8.674;2022-08-02T02:27:23;21.20;99.90
3715;DHT22;1873;49.988;8.674;2022-08-02T02:29:54;21.20;99.90
3715;DHT22;1873;49.988;8.674;2022-08-02T02:32:26;21.20;99.90
3715;DHT22;1873;49.988;8.674;2022-08-02T02:34:55;21.10;99.90
3715;DHT22;1873;49.988;8.674;2022-08-02T02:37:27;21.10;99.90
3715;DHT22;1873;49.988;8.674;2022-08-02T02:39:56;21.10;99.90
3715;DHT22;1873;49.988;8.674;2022-08-02T02:42:27;21.00;99.90
3715;DHT22;1873;49.988;8.674;2022-08-02T02:44:59;21.00;99.90
3715;DHT22;1873;49.988;8.674;2022-08-02T02:47:30;20.90;99.90
3715;DHT22;1873;49.988;8.674;2022-08-02T02:50:08;20.90;99.90
3715;DHT22;1873;49.988;8.674;2022-08-02T02:52:37;20.80;99.90
3715;DHT22;1873;49.988;8.674;2022-08-02T02:55:07;20.90;99.90
3715;DHT22;1873;49.988;8.674;2022-08-02T02:57:36;20.80;99.90
3715;DHT22;1873;49.988;8.674;2022-08-02T03:00:12;20.70;99.90
3715;DHT22;1873;49.988;8.674;2022-08-02T03:02:42;20.70;99.90
3715;DHT22;1873;49.988;8.674;2022-08-02T03:05:12;20.70;99.90
3715;DHT22;1873;49.988;8.674;2022-08-02T03:07:40;20.80;99.90
3715;DHT22;1873;49.988;8.674;2022-08-02T03:10:09;20.80;99.90
3715;DHT22;1873;49.988;8.674;2022-08-02T03:12:38;20.70;99.90
3715;DHT22;1873;49.988;8.674;2022-08-02T03:15:12;20.70;99.90
3715;DHT22;1873;49.988;8.674;2022-08-02T03:17:42;20.60;99.90
3715;DHT22;1873;49.988;8.674;2022-08-02T03:20:12;20.60;99.90
3715;DHT22;1873;49.988;8.674;2022-08-02T03:22:42;20.60;99.90
3715;DHT22;1873;49.988;8.674;2022-08-02T03:25:11;20.60;99.90
3715;DHT22;1873;49.988;8.674;2022-08-02T03:27:39;20.60;99.90
3715;DHT22;1873;49.988;8.674;2022-08-02T03:30:11;20.50;99.90
3715;DHT22;1873;49.988;8.674;2022-08-02T03:32:42;20.50;99.90
3715;DHT22;1873;49.988;8.674;2022-08-02T03:35:14;20.40;99.90
3715;DHT22;1873;49.988;8.674;2022-08-02T03:37:51;20.30;99.90
3715;DHT22;1873;49.988;8.674;2022-08-02T03:40:21;20.30;99.90
3715;DHT22;1873;49.988;8.674;2022-08-02T03:42:52;20.30;99.90
3715;DHT22;1873;49.988;8.674;2022-08-02T03:45:23;20.30;99.90
3715;DHT22;1873;49.988;8.674;2022-08-02T03:47:52;20.30;99.90
3715;DHT22;1873;49.988;8.674;2022-08-02T03:50:25;20.30;99.90
3715;DHT22;1873;49.988;8.674;2022-08-02T03:52:54;20.40;99.90
3715;DHT22;1873;49.988;8.674;2022-08-02T03:55:23;20.40;99.90
3715;DHT22;1873;49.988;8.674;2022-08-02T03:57:52;20.30;99.90
3715;DHT22;1873;49.988;8.674;2022-08-02T04:00:23;20.30;99.90
3715;DHT22;1873;49.988;8.674;2022-08-02T04:02:51;20.30;99.90
3715;DHT22;1873;49.988;8.674;2022-08-02T04:05:19;20.20;99.90
3715;DHT22;1873;49.988;8.674;2022-08-02T04:07:48;19.70;99.90
3715;DHT22;1873;49.988;8.674;2022-08-02T04:10:37;20.20;99.90
3715;DHT22;1873;49.988;8.674;2022-08-02T04:13:20;20.30;99.90
3715;DHT22;1873;49.988;8.674;2022-08-02T04:16:01;20.30;99.90
3715;DHT22;1873;49.988;8.674;2022-08-02T04:18:35;20.30;99.90
3715;DHT22;1873;49.988;8.674;2022-08-02T04:21:08;20.20;99.90
3715;DHT22;1873;49.988;8.674;2022-08-02T04:23:40;20.20;99.90
3715;DHT22;1873;49.988;8.674;2022-08-02T04:26:36;20.20;99.90
3715;DHT22;1873;49.988;8.674;2022-08-02T04:29:08;20.20;99.90
3715;DHT22;1873;49.988;8.674;2022-08-02T04:31:38;20.20;99.90
3715;DHT22;1873;49.988;8.674;2022-08-02T04:34:07;20.20;99.90
3715;DHT22;1873;49.988;8.674;2022-08-02T04:36:41;20.20;99.90
3715;DHT22;1873;49.988;8.674;2022-08-02T04:39:09;20.20;99.90
3715;DHT22;1873;49.988;8.674;2022-08-02T04:41:43;20.20;99.90
3715;DHT22;1873;49.988;8.674;2022-08-02T04:44:12;20.30;99.90
3715;DHT22;1873;49.988;8.674;2022-08-02T04:46:43;20.30;99.90
3715;DHT22;1873;49.988;8.674;2022-08-02T04:49:12;20.20;99.90
3715;DHT22;1873;49.988;8.674;2022-08-02T04:51:41;20.20;99.90
3715;DHT22;1873;49.988;8.674;2022-08-02T04:54:10;20.20;99.90
3715;DHT22;1873;49.988;8.674;2022-08-02T04:56:39;20.20;99.90
3715;DHT22;1873;49.988;8.674;2022-08-02T04:59:07;20.30;99.90
3715;DHT22;1873;49.988;8.674;2022-08-02T05:01:36;20.30;99.90
3715;DHT22;1873;49.988;8.674;2022-08-02T05:04:06;20.40;99.90
3715;DHT22;1873;49.988;8.674;2022-08-02T05:06:34;20.40;99.90
3715;DHT22;1873;49.988;8.674;2022-08-02T05:09:02;20.40;99.90
3715;DHT22;1873;49.988;8.674;2022-08-02T05:11:30;20.50;99.90
3715;DHT22;1873;49.988;8.674;2022-08-02T05:14:02;20.50;99.90
3715;DHT22;1873;49.988;8.674;2022-08-02T05:16:31;20.60;99.90
3715;DHT22;1873;49.988;8.674;2022-08-02T05:18:59;20.60;99.90
3715;DHT22;1873;49.988;8.674;2022-08-02T05:21:30;20.60;99.90
3715;DHT22;1873;49.988;8.674;2022-08-02T05:23:58;20.60;99.90
3715;DHT22;1873;49.988;8.674;2022-08-02T05:26:37;20.60;99.90
3715;DHT22;1873;49.988;8.674;2022-08-02T05:29:05;20.60;99.90
3715;DHT22;1873;49.988;8.674;2022-08-02T05:31:33;20.50;99.90
3715;DHT22;1873;49.988;8.674;2022-08-02T05:34:01;20.40;99.90
3715;DHT22;1873;49.988;8.674;2022-08-02T05:36:37;20.40;99.90
3715;DHT22;1873;49.988;8.674;2022-08-02T05:39:08;20.30;99.90
3715;DHT22;1873;49.988;8.674;2022-08-02T05:41:44;20.40;99.90
3715;DHT22;1873;49.988;8.674;2022-08-02T05:44:12;20.50;99.90
3715;DHT22;1873;49.988;8.674;2022-08-02T05:46:41;20.50;99.90
3715;DHT22;1873;49.988;8.674;2022-08-02T05:49:09;20.50;99.90
3715;DHT22;1873;49.988;8.674;2022-08-02T05:51:51;20.60;99.90
3715;DHT22;1873;49.988;8.674;2022-08-02T05:54:25;20.60;99.90
3715;DHT22;1873;49.988;8.674;2022-08-02T05:57:00;20.60;99.90
3715;DHT22;1873;49.988;8.674;2022-08-02T05:59:32;20.70;99.90
3715;DHT22;1873;49.988;8.674;2022-08-02T06:02:10;20.90;99.90
3715;DHT22;1873;49.988;8.674;2022-08-02T06:04:53;20.90;99.90
3715;DHT22;1873;49.988;8.674;2022-08-02T06:07:28;21.00;99.90
3715;DHT22;1873;49.988;8.674;2022-08-02T06:09:57;21.20;99.90
3715;DHT22;1873;49.988;8.674;2022-08-02T06:12:28;21.40;99.90
3715;DHT22;1873;49.988;8.674;2022-08-02T06:14:58;21.50;99.90
3715;DHT22;1873;49.988;8.674;2022-08-02T06:17:27;21.60;99.90
3715;DHT22;1873;49.988;8.674;2022-08-02T06:19:56;21.70;99.90
3715;DHT22;1873;49.988;8.674;2022-08-02T06:22:27;21.80;99.90
3715;DHT22;1873;49.988;8.674;2022-08-02T06:25:04;21.90;99.90
3715;DHT22;1873;49.988;8.674;2022-08-02T06:27:57;22.10;99.90
3715;DHT22;1873;49.988;8.674;2022-08-02T06:30:26;22.10;99.90
3715;DHT22;1873;49.988;8.674;2022-08-02T06:32:54;22.20;99.90
3715;DHT22;1873;49.988;8.674;2022-08-02T06:35:25;22.20;99.90
3715;DHT22;1873;49.988;8.674;2022-08-02T06:37:59;22.30;99.90
3715;DHT22;1873;49.988;8.674;2022-08-02T06:40:31;22.30;99.90
3715;DHT22;1873;49.988;8.674;2022-08-02T06:43:11;22.40;99.90
3715;DHT22;1873;49.988;8.674;2022-08-02T06:45:40;22.50;99.90
3715;DHT22;1873;49.988;8.674;2022-08-02T06:48:09;22.50;99.90
3715;DHT22;1873;49.988;8.674;2022-08-02T06:50:37;22.60;99.90
3715;DHT22;1873;49.988;8.674;2022-08-02T06:53:10;22.70;99.90
3715;DHT22;1873;49.988;8.674;2022-08-02T06:55:39;22.70;99.90
3715;DHT22;1873;49.988;8.674;2022-08-02T06:58:10;22.60;99.90
3715;DHT22;1873;49.988;8.674;2022-08-02T07:00:39;22.70;99.90
3715;DHT22;1873;49.988;8.674;2022-08-02T07:03:12;22.80;99.90
3715;DHT22;1873;49.988;8.674;2022-08-02T07:05:51;22.80;99.90
3715;DHT22;1873;49.988;8.674;2022-08-02T07:08:30;22.80;99.90
3715;DHT22;1873;49.988;8.674;2022-08-02T07:11:04;23.00;99.90
3715;DHT22;1873;49.988;8.674;2022-08-02T07:13:33;23.20;99.90
3715;DHT22;1873;49.988;8.674;2022-08-02T07:16:06;23.30;99.90
3715;DHT22;1873;49.988;8.674;2022-08-02T07:18:35;23.40;99.90
3715;DHT22;1873;49.988;8.674;2022-08-02T07:21:03;23.60;99.90
3715;DHT22;1873;49.988;8.674;2022-08-02T07:23:36;23.70;99.90
3715;DHT22;1873;49.988;8.674;2022-08-02T07:26:05;24.40;99.90
3715;DHT22;1873;49.988;8.674;2022-08-02T07:28:34;26.80;99.90
3715;DHT22;1873;49.988;8.674;2022-08-02T07:31:02;29.00;97.50
3715;DHT22;1873;49.988;8.674;2022-08-02T07:33:31;30.20;93.40
3715;DHT22;1873;49.988;8.674;2022-08-02T07:36:05;30.70;90.10
3715;DHT22;1873;49.988;8.674;2022-08-02T07:38:43;31.10;83.90
3715;DHT22;1873;49.988;8.674;2022-08-02T07:41:12;31.30;81.80
3715;DHT22;1873;49.988;8.674;2022-08-02T07:43:41;31.70;77.60
3715;DHT22;1873;49.988;8.674;2022-08-02T07:46:11;30.70;77.90
3715;DHT22;1873;49.988;8.674;2022-08-02T07:48:40;30.50;78.80
3715;DHT22;1873;49.988;8.674;2022-08-02T07:51:08;30.50;77.20
3715;DHT22;1873;49.988;8.674;2022-08-02T07:53:44;30.80;76.30
3715;DHT22;1873;49.988;8.674;2022-08-02T07:56:32;31.20;75.00
3715;DHT22;1873;49.988;8.674;2022-08-02T07:59:01;31.30;71.20
3715;DHT22;1873;49.988;8.674;2022-08-02T08:01:31;31.80;68.90
3715;DHT22;1873;49.988;8.674;2022-08-02T08:04:01;32.10;66.60
3715;DHT22;1873;49.988;8.674;2022-08-02T08:06:32;32.70;66.10
3715;DHT22;1873;49.988;8.674;2022-08-02T08:09:01;33.10;62.60
3715;DHT22;1873;49.988;8.674;2022-08-02T08:11:29;33.30;60.00
3715;DHT22;1873;49.988;8.674;2022-08-02T08:13:58;33.90;58.80
3715;DHT22;1873;49.988;8.674;2022-08-02T08:16:27;34.00;53.10
3715;DHT22;1873;49.988;8.674;2022-08-02T08:18:58;34.20;50.90
3715;DHT22;1873;49.988;8.674;2022-08-02T08:21:42;33.90;51.00
3715;DHT22;1873;49.988;8.674;2022-08-02T08:24:21;33.90;50.10
3715;DHT22;1873;49.988;8.674;2022-08-02T08:29:59;34.40;47.70
3715;DHT22;1873;49.988;8.674;2022-08-02T08:32:31;34.00;48.90
3715;DHT22;1873;49.988;8.674;2022-08-02T08:35:01;34.30;47.70
3715;DHT22;1873;49.988;8.674;2022-08-02T08:37:37;34.40;48.70
3715;DHT22;1873;49.988;8.674;2022-08-02T08:40:23;34.40;47.30
3715;DHT22;1873;49.988;8.674;2022-08-02T08:43:15;35.10;48.10
3715;DHT22;1873;49.988;8.674;2022-08-02T08:45:44;34.00;48.40
3715;DHT22;1873;49.988;8.674;2022-08-02T08:48:23;34.20;47.20
3715;DHT22;1873;49.988;8.674;2022-08-02T08:51:06;34.30;46.30
3715;DHT22;1873;49.988;8.674;2022-08-02T08:53:43;33.20;44.80
3715;DHT22;1873;49.988;8.674;2022-08-02T08:56:32;35.10;46.30
3715;DHT22;1873;49.988;8.674;2022-08-02T08:59:02;34.10;46.20
3715;DHT22;1873;49.988;8.674;2022-08-02T09:01:31;34.00;46.80
3715;DHT22;1873;49.988;8.674;2022-08-02T09:04:18;34.20;45.70
3715;DHT22;1873;49.988;8.674;2022-08-02T09:07:06;35.20;45.60
3715;DHT22;1873;49.988;8.674;2022-08-02T09:09:41;33.70;45.30
3715;DHT22;1873;49.988;8.674;2022-08-02T09:15:26;32.70;46.80
3715;DHT22;1873;49.988;8.674;2022-08-02T09:17:57;30.70;48.50
3715;DHT22;1873;49.988;8.674;2022-08-02T09:20:27;30.00;49.00
3715;DHT22;1873;49.988;8.674;2022-08-02T09:23:08;31.00;49.60
3715;DHT22;1873;49.988;8.674;2022-08-02T09:25:40;32.30;48.30
3715;DHT22;1873;49.988;8.674;2022-08-02T09:28:25;32.70;47.30
3715;DHT22;1873;49.988;8.674;2022-08-02T09:31:03;32.30;47.20
3715;DHT22;1873;49.988;8.674;2022-08-02T09:33:33;32.50;46.20
3715;DHT22;1873;49.988;8.674;2022-08-02T09:36:04;32.60;48.00
3715;DHT22;1873;49.988;8.674;2022-08-02T09:38:35;32.10;47.80
3715;DHT22;1873;49.988;8.674;2022-08-02T09:41:20;32.20;48.00
3715;DHT22;1873;49.988;8.674;2022-08-02T09:43:49;31.80;49.80
3715;DHT22;1873;49.988;8.674;2022-08-02T09:46:35;32.10;47.00
3715;DHT22;1873;49.988;8.674;2022-08-02T09:49:06;32.10;48.60
3715;DHT22;1873;49.988;8.674;2022-08-02T09:51:37;32.10;46.90
3715;DHT22;1873;49.988;8.674;2022-08-02T09:54:08;32.00;46.40
3715;DHT22;1873;49.988;8.674;2022-08-02T09:56:45;32.00;48.30
3715;DHT22;1873;49.988;8.674;2022-08-02T09:59:17;32.00;49.70
3715;DHT22;1873;49.988;8.674;2022-08-02T10:01:48;32.10;46.30
3715;DHT22;1873;49.988;8.674;2022-08-02T10:04:37;32.50;48.20
3715;DHT22;1873;49.988;8.674;2022-08-02T10:07:20;30.70;46.50
3715;DHT22;1873;49.988;8.674;2022-08-02T10:09:49;32.40;46.80
3715;DHT22;1873;49.988;8.674;2022-08-02T10:12:18;32.30;45.70
3715;DHT22;1873;49.988;8.674;2022-08-02T10:14:49;31.80;45.60
3715;DHT22;1873;49.988;8.674;2022-08-02T10:17:21;31.80;46.60
3715;DHT22;1873;49.988;8.674;2022-08-02T10:19:50;32.00;46.50
3715;DHT22;1873;49.988;8.674;2022-08-02T10:22:32;32.20;45.50
3715;DHT22;1873;49.988;8.674;2022-08-02T10:25:02;32.00;44.60
3715;DHT22;1873;49.988;8.674;2022-08-02T10:27:32;31.00;46.00
3715;DHT22;1873;49.988;8.674;2022-08-02T10:30:22;30.40;46.30
3715;DHT22;1873;49.988;8.674;2022-08-02T10:32:56;32.10;46.70
3715;DHT22;1873;49.988;8.674;2022-08-02T10:35:26;32.30;46.30
3715;DHT22;1873;49.988;8.674;2022-08-02T10:38:00;29.50;44.30
3715;DHT22;1873;49.988;8.674;2022-08-02T10:40:45;31.30;46.90
3715;DHT22;1873;49.988;8.674;2022-08-02T10:43:41;31.30;46.60
3715;DHT22;1873;49.988;8.674;2022-08-02T10:46:29;31.80;47.40
3715;DHT22;1873;49.988;8.674;2022-08-02T10:49:18;32.00;46.50
3715;DHT22;1873;49.988;8.674;2022-08-02T10:52:08;32.20;46.30
3715;DHT22;1873;49.988;8.674;2022-08-02T10:55:08;32.20;45.10
3715;DHT22;1873;49.988;8.674;2022-08-02T10:58:14;33.30;46.50
3715;DHT22;1873;49.988;8.674;2022-08-02T11:00:45;32.10;45.70
3715;DHT22;1873;49.988;8.674;2022-08-02T11:03:37;32.00;45.40
3715;DHT22;1873;49.988;8.674;2022-08-02T11:06:10;31.90;47.00
3715;DHT22;1873;49.988;8.674;2022-08-02T11:09:25;31.20;45.90
3715;DHT22;1873;49.988;8.674;2022-08-02T11:12:00;31.40;46.90
3715;DHT22;1873;49.988;8.674;2022-08-02T11:14:31;31.30;46.70
3715;DHT22;1873;49.988;8.674;2022-08-02T11:17:08;31.60;45.60
3715;DHT22;1873;49.988;8.674;2022-08-02T11:22:44;32.00;45.40
3715;DHT22;1873;49.988;8.674;2022-08-02T11:25:32;31.90;43.90
3715;DHT22;1873;49.988;8.674;2022-08-02T11:28:21;31.20;43.80
3715;DHT22;1873;49.988;8.674;2022-08-02T11:30:59;31.20;45.00
3715;DHT22;1873;49.988;8.674;2022-08-02T11:33:36;31.60;45.80
3715;DHT22;1873;49.988;8.674;2022-08-02T11:36:06;32.00;44.20
3715;DHT22;1873;49.988;8.674;2022-08-02T11:38:36;32.30;44.70
3715;DHT22;1873;49.988;8.674;2022-08-02T11:41:04;32.20;43.90
3715;DHT22;1873;49.988;8.674;2022-08-02T11:43:36;31.80;42.80
3715;DHT22;1873;49.988;8.674;2022-08-02T11:46:12;32.10;44.50
3715;DHT22;1873;49.988;8.674;2022-08-02T11:48:44;32.20;45.30
3715;DHT22;1873;49.988;8.674;2022-08-02T11:51:14;30.90;43.80
3715;DHT22;1873;49.988;8.674;2022-08-02T11:53:44;30.90;45.70
3715;DHT22;1873;49.988;8.674;2022-08-02T11:56:14;30.90;45.80
3715;DHT22;1873;49.988;8.674;2022-08-02T11:59:02;31.10;45.60
3715;DHT22;1873;49.988;8.674;2022-08-02T12:04:41;30.80;46.10
3715;DHT22;1873;49.988;8.674;2022-08-02T12:07:36;30.20;47.00
3715;DHT22;1873;49.988;8.674;2022-08-02T12:10:35;30.20;46.70
3715;DHT22;1873;49.988;8.674;2022-08-02T12:13:26;30.20;48.10
3715;DHT22;1873;49.988;8.674;2022-08-02T12:15:57;30.20;46.90
3715;DHT22;1873;49.988;8.674;2022-08-02T12:18:49;30.20;47.20
3715;DHT22;1873;49.988;8.674;2022-08-02T12:21:42;30.20;49.20
3715;DHT22;1873;49.988;8.674;2022-08-02T12:24:27;30.20;50.10
3715;DHT22;1873;49.988;8.674;2022-08-02T12:26:56;30.40;47.90
3715;DHT22;1873;49.988;8.674;2022-08-02T12:29:30;30.40;47.60
3715;DHT22;1873;49.988;8.674;2022-08-02T12:32:23;30.10;47.40
3715;DHT22;1873;49.988;8.674;2022-08-02T12:35:02;30.00;48.20
3715;DHT22;1873;49.988;8.674;2022-08-02T12:37:33;30.10;47.60
3715;DHT22;1873;49.988;8.674;2022-08-02T12:40:19;30.00;48.60
3715;DHT22;1873;49.988;8.674;2022-08-02T12:43:02;30.00;47.40
3715;DHT22;1873;49.988;8.674;2022-08-02T12:46:04;29.90;47.40
3715;DHT22;1873;49.988;8.674;2022-08-02T12:49:00;29.30;46.00
3715;DHT22;1873;49.988;8.674;2022-08-02T12:51:47;29.20;44.40
3715;DHT22;1873;49.988;8.674;2022-08-02T12:54:28;29.10;44.80
3715;DHT22;1873;49.988;8.674;2022-08-02T12:57:09;28.90;45.40
3715;DHT22;1873;49.988;8.674;2022-08-02T12:59:39;28.80;46.00
3715;DHT22;1873;49.988;8.674;2022-08-02T13:02:09;29.00;45.40
3715;DHT22;1873;49.988;8.674;2022-08-02T13:04:52;29.00;45.10
3715;DHT22;1873;49.988;8.674;2022-08-02T13:07:21;29.10;46.30
3715;DHT22;1873;49.988;8.674;2022-08-02T13:10:06;29.20;45.70
3715;DHT22;1873;49.988;8.674;2022-08-02T13:12:36;29.30;45.10
3715;DHT22;1873;49.988;8.674;2022-08-02T13:15:07;29.00;45.10
3715;DHT22;1873;49.988;8.674;2022-08-02T13:18:14;29.00;45.70
3715;DHT22;1873;49.988;8.674;2022-08-02T13:20:59;29.10;45.10
3715;DHT22;1873;49.988;8.674;2022-08-02T13:23:57;29.10;45.80
3715;DHT22;1873;49.988;8.674;2022-08-02T13:26:31;29.10;45.70
3715;DHT22;1873;49.988;8.674;2022-08-02T13:29:02;29.20;46.20
3715;DHT22;1873;49.988;8.674;2022-08-02T13:31:30;29.20;46.20
3715;DHT22;1873;49.988;8.674;2022-08-02T13:34:03;29.20;46.40
3715;DHT22;1873;49.988;8.674;2022-08-02T13:36:32;29.30;46.20
3715;DHT22;1873;49.988;8.674;2022-08-02T13:39:03;29.10;45.10
3715;DHT22;1873;49.988;8.674;2022-08-02T13:41:47;29.10;45.20
3715;DHT22;1873;49.988;8.674;2022-08-02T13:44:22;29.10;46.50
3715;DHT22;1873;49.988;8.674;2022-08-02T13:46:51;28.90;46.10
3715;DHT22;1873;49.988;8.674;2022-08-02T13:49:21;29.00;45.80
3715;DHT22;1873;49.988;8.674;2022-08-02T13:52:31;29.00;45.10
3715;DHT22;1873;49.988;8.674;2022-08-02T13:55:02;29.10;45.90
3715;DHT22;1873;49.988;8.674;2022-08-02T13:57:41;29.00;46.70
3715;DHT22;1873;49.988;8.674;2022-08-02T14:00:20;28.90;45.20
3715;DHT22;1873;49.988;8.674;2022-08-02T14:03:05;28.80;45.60
3715;DHT22;1873;49.988;8.674;2022-08-02T14:05:40;28.80;45.60
3715;DHT22;1873;49.988;8.674;2022-08-02T14:08:17;28.70;46.20
3715;DHT22;1873;49.988;8.674;2022-08-02T14:10:47;28.70;46.00
3715;DHT22;1873;49.988;8.674;2022-08-02T14:13:30;27.90;44.40
3715;DHT22;1873;49.988;8.674;2022-08-02T14:16:03;26.80;43.60
3715;DHT22;1873;49.988;8.674;2022-08-02T14:18:32;28.50;45.80
3715;DHT22;1873;49.988;8.674;2022-08-02T14:21:01;28.50;45.50
3715;DHT22;1873;49.988;8.674;2022-08-02T14:23:36;28.70;45.20
3715;DHT22;1873;49.988;8.674;2022-08-02T14:26:18;28.70;45.40
3715;DHT22;1873;49.988;8.674;2022-08-02T14:29:08;28.80;45.40
3715;DHT22;1873;49.988;8.674;2022-08-02T14:31:36;28.80;45.80
3715;DHT22;1873;49.988;8.674;2022-08-02T14:34:15;28.80;45.50
3715;DHT22;1873;49.988;8.674;2022-08-02T14:36:43;28.70;44.90
3715;DHT22;1873;49.988;8.674;2022-08-02T14:39:17;28.70;43.80
3715;DHT22;1873;49.988;8.674;2022-08-02T14:41:46;28.70;43.40
3715;DHT22;1873;49.988;8.674;2022-08-02T14:44:28;28.80;43.30
3715;DHT22;1873;49.988;8.674;2022-08-02T14:46:56;28.70;43.20
3715;DHT22;1873;49.988;8.674;2022-08-02T14:49:25;28.70;42.30
3715;DHT22;1873;49.988;8.674;2022-08-02T14:51:54;28.90;41.80
3715;DHT22;1873;49.988;8.674;2022-08-02T14:54:23;28.90;41.60
3715;DHT22;1873;49.988;8.674;2022-08-02T14:56:57;29.00;41.60
3715;DHT22;1873;49.988;8.674;2022-08-02T14:59:35;29.00;42.30
3715;DHT22;1873;49.988;8.674;2022-08-02T15:02:08;29.00;43.40
3715;DHT22;1873;49.988;8.674;2022-08-02T15:04:41;27.10;42.30
3715;DHT22;1873;49.988;8.674;2022-08-02T15:07:11;28.80;44.80
3715;DHT22;1873;49.988;8.674;2022-08-02T15:09:40;28.80;43.90
3715;DHT22;1873;49.988;8.674;2022-08-02T15:12:15;30.50;44.20
3715;DHT22;1873;49.988;8.674;2022-08-02T15:14:45;28.90;41.60
3715;DHT22;1873;49.988;8.674;2022-08-02T15:17:17;28.90;41.10
3715;DHT22;1873;49.988;8.674;2022-08-02T15:19:46;28.90;41.60
3715;DHT22;1873;49.988;8.674;2022-08-02T15:22:26;28.90;43.70
3715;DHT22;1873;49.988;8.674;2022-08-02T15:24:56;28.80;45.00
3715;DHT22;1873;49.988;8.674;2022-08-02T15:27:26;28.80;43.90
3715;DHT22;1873;49.988;8.674;2022-08-02T15:29:59;28.80;44.60
3715;DHT22;1873;49.988;8.674;2022-08-02T15:32:28;28.80;45.30
3715;DHT22;1873;49.988;8.674;2022-08-02T15:34:56;28.80;45.90
3715;DHT22;1873;49.988;8.674;2022-08-02T15:37:24;28.70;46.00
3715;DHT22;1873;49.988;8.674;2022-08-02T15:39:58;28.80;46.20
3715;DHT22;1873;49.988;8.674;2022-08-02T15:42:27;28.70;44.50
3715;DHT22;1873;49.988;8.674;2022-08-02T15:44:56;28.70;45.10
3715;DHT22;1873;49.988;8.674;2022-08-02T15:47:26;28.70;45.00
3715;DHT22;1873;49.988;8.674;2022-08-02T15:49:55;28.80;44.70
3715;DHT22;1873;49.988;8.674;2022-08-02T15:52:24;28.80;45.20
3715;DHT22;1873;49.988;8.674;2022-08-02T15:54:52;28.90;45.00
3715;DHT22;1873;49.988;8.674;2022-08-02T15:57:21;28.80;45.90
3715;DHT22;1873;49.988;8.674;2022-08-02T15:59:50;28.80;45.30
3715;DHT22;1873;49.988;8.674;2022-08-02T16:02:20;28.80;45.30
3715;DHT22;1873;49.988;8.674;2022-08-02T16:04:50;28.70;44.90
3715;DHT22;1873;49.988;8.674;2022-08-02T16:07:18;28.70;45.30
3715;DHT22;1873;49.988;8.674;2022-08-02T16:09:47;28.70;46.20
3715;DHT22;1873;49.988;8.674;2022-08-02T16:12:15;28.70;46.20
3715;DHT22;1873;49.988;8.674;2022-08-02T16:14:47;28.80;45.60
3715;DHT22;1873;49.988;8.674;2022-08-02T16:17:16;28.70;45.80
3715;DHT22;1873;49.988;8.674;2022-08-02T16:20:07;28.70;46.00
3715;DHT22;1873;49.988;8.674;2022-08-02T16:22:36;28.80;48.00
3715;DHT22;1873;49.988;8.674;2022-08-02T16:25:05;28.80;46.30
3715;DHT22;1873;49.988;8.674;2022-08-02T16:27:43;28.80;47.10
3715;DHT22;1873;49.988;8.674;2022-08-02T16:30:33;28.60;49.50
3715;DHT22;1873;49.988;8.674;2022-08-02T16:33:02;28.60;49.40
3715;DHT22;1873;49.988;8.674;2022-08-02T16:35:32;28.50;49.10
3715;DHT22;1873;49.988;8.674;2022-08-02T16:38:01;28.60;46.90
3715;DHT22;1873;49.988;8.674;2022-08-02T16:40:30;28.70;46.10
3715;DHT22;1873;49.988;8.674;2022-08-02T16:43:00;28.90;46.20
3715;DHT22;1873;49.988;8.674;2022-08-02T16:45:34;28.90;46.60
3715;DHT22;1873;49.988;8.674;2022-08-02T16:48:04;28.90;46.80
3715;DHT22;1873;49.988;8.674;2022-08-02T16:50:37;28.90;46.60
3715;DHT22;1873;49.988;8.674;2022-08-02T16:53:05;28.80;47.20
3715;DHT22;1873;49.988;8.674;2022-08-02T16:55:40;28.80;48.20
3715;DHT22;1873;49.988;8.674;2022-08-02T16:58:28;28.80;46.90
3715;DHT22;1873;49.988;8.674;2022-08-02T17:00:57;28.80;46.50